KCEZ/CEZ METAR and TAF weather

Enter ICAO airport designator
Station Type Date Time Source
KCEZ METAR 2018/12/12 23:18 UTC NOAA

KCEZ 122318Z AUTO 31017G25KT 1/4SM +SN FG FEW008 OVC018 01/M02 A2996 RMK AO2 RAE04SNB08 PRESRR P0001 T00061017


Station Type Date Time Source
KCEZ Decoded METAR 2018/12/12 23:18 UTC NOAA

CORTEZ MONTEZUMA COUNTY AIRPORT , CO, United States (KCEZ) 37-18N 108-38W 1797M
Dec 12, 2018 - 06:18 PM EST / 2018.12.12 2318 UTC
Wind: from the NW (310 degrees) at 20 MPH (17 KT) gusting to 29 MPH (25 KT):0
Visibility: 1/4 mile(s):0
Sky conditions: overcast
Weather: heavy snow; fog
Precipitation last hour: 0.01 inches
Temperature: 33.1 F (0.6 C)
Windchill: 21 F (-6 C):1
Dew Point: 28.9 F (-1.7 C)
Relative Humidity: 84%
Pressure (altimeter): 29.96 in. Hg (1014 hPa)
Pressure tendency: rising rapidly
ob: KCEZ 122318Z AUTO 31017G25KT 1/4SM +SN FG FEW008 OVC018 01/M02 A2996 RMK AO2 RAE04SNB08 PRESRR P0001 T00061017
cycle: 23

Station Type Date Time Source
KCEZ TAF UTC NOAA

Error!


Example: see airport list